CYTZ/YTZ METAR and TAF weather

Enter ICAO airport designator
Station Type Date Time Source
CYTZ METAR 2018/07/15 21:00 UTC NOAA

CYTZ 152100Z AUTO 12004KT 100V160 9SM CLR 28/21 A2995 RMK SLP144 DENSITY ALT 1700FT


Station Type Date Time Source
CYTZ Decoded METAR 2018/07/15 21:00 UTC NOAA

Toronto Island Airport Automated Reporting Station, Canada (CYTZ) 43-38N 079-24W
Jul 15, 2018 - 05:00 PM EDT / 2018.07.15 2100 UTC
Wind: from the ESE (120 degrees) at 5 MPH (4 KT) (direction variable):0
Visibility: 9 mile(s):0
Sky conditions: clear
Temperature: 82 F (28 C)
Dew Point: 69 F (21 C)
Relative Humidity: 65%
Pressure (altimeter): 29.95 in. Hg (1014 hPa)
ob: CYTZ 152100Z AUTO 12004KT 100V160 9SM CLR 28/21 A2995 RMK SLP144 DENSITY ALT 1700FT
cycle: 21

Station Type Date Time Source
CYTZ TAF 2018/07/15 20:46 UTC NOAA

TAF CYTZ 151938Z 1520/1620 10005KT P6SM FEW040
TEMPO 1520/1524 BKN040
BECMG 1522/1524 06005KT
FM161400 15008KT P6SM SCT030 BKN060
BECMG 1616/1618 18008KT
RMK FCST BASED ON AUTO OBS. NXT FCST BY 160200Z


Example: see airport list